Russell, Pennsylvania
Current Conditions -  °F | °C
As of 6:55 AM on Thursday 27 Nov 2014 (Local Time) from KJHW Reporting Station
Overcast Overcast  
Wind Chill: 27°   Ceiling: 2300
Heat Index: 27°   Visibility: 10mi
Dew Point: 21°   Wind: 3mph
Humidity: 80%   Direction: 40°NE
Pressure: 29.99"   Gusts: NA
Location:  41.94°N, 79.13°W
Report Text: KJHW 271155Z 04003KT 10SM BKN023 BKN029 OVC049 M03/M06 A2999 RMK AO1 11020 21030 52010
Loading
Personal Weather Stations






























Interactive Weather Map New forecast layout! Learn more

10-Day Weather Forecast

Advertisements
Track Severe Weather on mobile